50F weather

Bourland Field
Fort Worth, Texas, United States

Public forecast

Using degrees Fahrenheit for public forecast. Weather courtesy of forecast.io.

METAR (pilot weather report)

Closest report is NAS Fort Worth JRB/Carswell Field, 13.5 nm (25.1 km) NE. Retrieved 2019/06/19 23:52 UTC (34 minutes ago):

KNFW 192352Z 20011G18KT 10SM FEW050 SCT300 36/22 A2964 RMK AO2 SLP024 T03610222 10367 20333 56022 VISNO N $

TAF (pilot weather forecast)

Forecast is more than 12 hours old.

Closest forecast is NAS Fort Worth JRB/Carswell Field, 13.5 nm (25.1 km) NE. Retrieved 2014/12/04 15:30 UTC (5 years ago):

TAF KNFW 041500Z 0415/0515 16009KT 9999 8000 BR BKN015 OVC060 QNH3004INS TEMPO 0415/0420 3200 -DZ BR BKN009 OVC020 FM050000 16009KT 9999 BKN010 OVC040 QNH3010INS FM051200 17012KT 9999 BKN040 OVC100 QNH3012INS T24/0423Z T13/0512Z FN20046